createdAt,value
2023-04-29T00:03:27.602Z,4.30
2023-04-29T00:07:28.951Z,3.57
2023-04-29T00:11:30.138Z,4.47
2023-04-29T00:15:31.286Z,5.67
2023-04-29T00:19:32.930Z,4.40
2023-04-29T00:23:34.311Z,5.20
2023-04-29T00:27:35.471Z,5.57
2023-04-29T00:31:37.457Z,5.03
2023-04-29T00:35:38.988Z,4.40
2023-04-29T00:39:40.177Z,6.37
2023-04-29T00:43:41.345Z,6.30
2023-04-29T00:47:42.570Z,4.87
2023-04-29T00:51:44.001Z,4.63
2023-04-29T00:55:46.866Z,4.40
2023-04-29T00:59:49.655Z,5.40
2023-04-29T01:03:50.988Z,4.50
2023-04-29T01:08:05.611Z,5.33
2023-04-29T01:12:39.792Z,6.53
2023-04-29T01:16:48.647Z,5.70
2023-04-29T01:20:52.411Z,5.43
2023-04-29T01:24:54.358Z,9.83
2023-04-29T01:29:11.174Z,7.30
2023-04-29T01:33:31.434Z,7.40
2023-04-29T01:37:42.569Z,6.57
2023-04-29T01:41:48.036Z,6.63
2023-04-29T01:45:50.824Z,7.30
2023-04-29T01:49:52.309Z,6.60
2023-04-29T01:53:53.605Z,7.07
2023-04-29T01:57:54.891Z,8.30
2023-04-29T02:01:57.979Z,6.47
2023-04-29T02:05:59.155Z,7.90
2023-04-29T02:10:00.243Z,8.73
2023-04-29T02:14:01.492Z,6.87
2023-04-29T02:18:02.717Z,6.80
2023-04-29T02:22:03.830Z,7.23
2023-04-29T02:26:06.228Z,8.87
2023-04-29T02:30:09.304Z,8.30
2023-04-29T02:34:10.452Z,7.60
2023-04-29T02:38:13.524Z,7.90
2023-04-29T02:42:14.680Z,7.27
2023-04-29T02:46:18.006Z,6.80
2023-04-29T02:50:19.523Z,6.90
2023-04-29T02:54:20.871Z,6.90
2023-04-29T02:58:22.027Z,8.50
2023-04-29T03:02:23.273Z,6.93
2023-04-29T03:06:25.217Z,6.53
2023-04-29T03:10:26.408Z,7.63
2023-04-29T03:14:27.654Z,7.47
2023-04-29T03:18:28.824Z,6.90
2023-04-29T03:22:29.978Z,7.00
2023-04-29T03:26:31.226Z,7.37
2023-04-29T03:30:32.468Z,6.60
2023-04-29T03:34:33.612Z,7.87
2023-04-29T03:38:35.069Z,7.50
2023-04-29T03:42:36.222Z,5.57
2023-04-29T03:46:37.480Z,6.20
2023-04-29T03:50:38.837Z,9.77
2023-04-29T03:54:40.596Z,7.73
2023-04-29T03:58:41.775Z,7.87
2023-04-29T04:02:43.114Z,7.10
2023-04-29T04:06:46.310Z,7.30
2023-04-29T04:10:47.382Z,7.47
2023-04-29T04:14:48.535Z,8.43
2023-04-29T04:18:49.683Z,7.70
2023-04-29T04:22:50.877Z,7.97
2023-04-29T04:26:52.026Z,9.80
2023-04-29T04:30:53.178Z,7.30
2023-04-29T04:34:54.579Z,6.70
2023-04-29T04:38:55.645Z,10.90
2023-04-29T04:42:56.788Z,8.47
2023-04-29T04:46:57.949Z,7.83
2023-04-29T04:50:59.300Z,7.80
2023-04-29T04:55:01.521Z,10.00
2023-04-29T04:59:03.192Z,8.80
2023-04-29T05:03:04.466Z,11.37
2023-04-29T05:07:05.717Z,12.10
2023-04-29T05:11:15.504Z,11.93
2023-04-29T05:15:18.457Z,13.60
2023-04-29T05:19:19.803Z,18.53
2023-04-29T05:23:22.375Z,15.20
2023-04-29T05:27:23.613Z,15.00
2023-04-29T05:31:25.647Z,16.20
2023-04-29T05:35:27.112Z,12.97
2023-04-29T05:39:28.293Z,13.13
2023-04-29T05:43:29.475Z,14.77
2023-04-29T05:47:30.753Z,14.20
2023-04-29T05:51:31.970Z,13.30
2023-04-29T05:55:33.134Z,13.33
2023-04-29T05:59:35.357Z,13.07
2023-04-29T06:03:36.617Z,13.50
2023-04-29T06:07:38.944Z,12.73
2023-04-29T06:11:40.601Z,12.80
2023-04-29T06:15:41.846Z,10.53
2023-04-29T06:19:43.247Z,9.20
2023-04-29T06:23:44.509Z,10.13
2023-04-29T06:27:45.705Z,10.17
2023-04-29T06:31:46.910Z,9.03
2023-04-29T06:35:48.043Z,8.03
2023-04-29T06:39:49.227Z,9.70
2023-04-29T06:43:50.411Z,11.20
2023-04-29T06:47:51.482Z,9.93
2023-04-29T06:51:53.178Z,11.90
2023-04-29T06:55:54.326Z,8.60
2023-04-29T06:59:55.753Z,8.10
2023-04-29T07:03:57.014Z,7.03
2023-04-29T07:07:58.350Z,8.13
2023-04-29T07:12:00.404Z,9.67
2023-04-29T07:16:01.578Z,9.73
2023-04-29T07:20:03.713Z,10.50
2023-04-29T07:24:05.310Z,9.90
2023-04-29T07:28:08.281Z,8.27
2023-04-29T07:32:09.487Z,8.10
2023-04-29T07:36:10.726Z,7.73
2023-04-29T07:40:12.524Z,9.60
2023-04-29T07:44:13.668Z,7.17
2023-04-29T07:48:15.024Z,9.83
2023-04-29T07:52:16.255Z,8.60
2023-04-29T07:56:18.318Z,10.20
2023-04-29T08:00:19.501Z,8.73
2023-04-29T08:04:21.004Z,7.23
2023-04-29T08:08:22.432Z,7.07
2023-04-29T08:12:23.610Z,8.80
2023-04-29T08:16:26.469Z,6.03
2023-04-29T08:20:28.173Z,6.43
2023-04-29T08:24:29.658Z,6.27
2023-04-29T08:28:31.686Z,5.70
2023-04-29T08:32:34.529Z,5.00
2023-04-29T08:36:37.578Z,7.50
2023-04-29T08:40:45.192Z,5.77
2023-04-29T08:44:46.561Z,7.03
2023-04-29T08:48:48.620Z,7.90
2023-04-29T08:52:51.403Z,8.53
2023-04-29T08:56:54.871Z,6.13
2023-04-29T09:00:56.743Z,7.77
2023-04-29T09:05:08.465Z,7.10
2023-04-29T09:09:10.912Z,9.10
2023-04-29T09:13:29.730Z,7.33
2023-04-29T09:17:40.229Z,6.93
2023-04-29T09:21:43.307Z,6.67
2023-04-29T09:25:48.781Z,8.43
2023-04-29T09:30:02.315Z,8.20
2023-04-29T09:34:03.594Z,5.57
2023-04-29T09:38:15.401Z,5.00
2023-04-29T09:42:16.982Z,6.00
2023-04-29T09:46:18.178Z,6.03
2023-04-29T09:50:19.626Z,6.37
2023-04-29T09:54:25.682Z,5.80
2023-04-29T09:58:33.896Z,6.40
2023-04-29T10:02:36.288Z,6.30
2023-04-29T10:06:40.521Z,7.13
2023-04-29T10:10:42.778Z,7.93
2023-04-29T10:14:56.768Z,6.27
2023-04-29T10:19:02.947Z,5.87
2023-04-29T10:23:04.982Z,5.37
2023-04-29T10:27:11.977Z,5.17
2023-04-29T10:31:16.081Z,6.77
2023-04-29T10:35:19.611Z,5.20
2023-04-29T10:39:27.537Z,6.53
2023-04-29T10:43:28.732Z,6.17
2023-04-29T10:47:29.900Z,4.83
2023-04-29T10:51:36.873Z,4.93
2023-04-29T10:55:38.161Z,5.30
2023-04-29T10:59:43.148Z,6.13
2023-04-29T11:03:49.614Z,6.53
2023-04-29T11:07:54.907Z,6.70
2023-04-29T11:12:03.650Z,7.17
2023-04-29T11:16:10.007Z,6.57
2023-04-29T11:20:14.330Z,7.47
2023-04-29T11:24:16.640Z,7.37
2023-04-29T11:28:17.931Z,6.73
2023-04-29T11:32:22.544Z,8.40
2023-04-29T11:36:24.520Z,6.87
2023-04-29T11:40:26.186Z,5.13
2023-04-29T11:44:27.400Z,5.43
2023-04-29T11:48:29.668Z,4.50
2023-04-29T11:52:31.632Z,4.90
2023-04-29T11:56:32.827Z,6.50
2023-04-29T12:00:34.855Z,5.67
2023-04-29T12:04:45.135Z,4.80
2023-04-29T12:08:47.663Z,4.30
2023-04-29T12:12:49.591Z,4.20
2023-04-29T12:16:51.506Z,7.33
2023-04-29T12:20:55.298Z,4.47
2023-04-29T12:24:56.798Z,4.03
2023-04-29T12:28:59.204Z,4.70
2023-04-29T12:33:02.047Z,5.50
2023-04-29T12:37:03.418Z,4.00
2023-04-29T12:41:06.526Z,4.10
2023-04-29T12:45:08.325Z,4.30
2023-04-29T12:49:10.703Z,4.97
2023-04-29T12:53:12.831Z,4.30
2023-04-29T12:57:14.459Z,4.97
2023-04-29T13:01:18.460Z,4.30
2023-04-29T13:05:19.132Z,4.77
2023-04-29T13:09:20.337Z,4.10
2023-04-29T13:13:21.534Z,4.93
2023-04-29T13:17:23.166Z,4.33
2023-04-29T13:21:24.422Z,3.63
2023-04-29T13:25:25.579Z,4.60
2023-04-29T13:29:26.889Z,6.83
2023-04-29T13:33:28.079Z,4.30
2023-04-29T13:37:29.295Z,5.53
2023-04-29T13:41:34.484Z,4.97
2023-04-29T13:45:38.901Z,4.40
2023-04-29T14:05:53.595Z,4.03
2023-04-29T14:09:54.934Z,4.60
2023-04-29T14:13:56.427Z,5.70
2023-04-29T14:17:57.651Z,4.60
2023-04-29T14:21:58.882Z,4.57
2023-04-29T14:30:04.345Z,3.90
2023-04-29T14:34:05.662Z,4.80
2023-04-29T14:38:06.942Z,10.60
2023-04-29T14:42:08.175Z,4.37
2023-04-29T14:46:09.635Z,4.83
2023-04-29T14:50:10.928Z,4.50
2023-04-29T14:54:12.572Z,4.43
2023-04-29T14:58:13.849Z,4.10
2023-04-29T15:02:15.115Z,4.70
2023-04-29T15:06:16.773Z,4.70
2023-04-29T15:10:18.039Z,4.97
2023-04-29T15:14:19.274Z,5.60
2023-04-29T15:18:22.342Z,4.93
2023-04-29T15:22:23.507Z,4.60
2023-04-29T15:26:25.491Z,6.10
2023-04-29T15:30:27.107Z,5.07
2023-04-29T15:34:28.260Z,5.13
2023-04-29T15:38:29.648Z,5.50
2023-04-29T15:42:30.847Z,6.33
2023-04-29T15:46:32.086Z,7.33
2023-04-29T15:50:33.222Z,8.87
2023-04-29T15:54:35.199Z,7.57
2023-04-29T15:58:36.485Z,6.13
2023-04-29T16:02:37.674Z,3.70
2023-04-29T16:06:38.898Z,5.97
2023-04-29T16:10:40.262Z,7.50
2023-04-29T16:14:41.441Z,5.47
2023-04-29T16:18:42.649Z,4.97
2023-04-29T16:22:43.842Z,5.60
2023-04-29T16:26:45.069Z,5.67
2023-04-29T16:30:46.168Z,7.00
2023-04-29T16:34:47.627Z,6.40
2023-04-29T16:38:48.814Z,7.10
2023-04-29T16:42:50.490Z,7.67
2023-04-29T16:46:52.830Z,6.13
2023-04-29T16:50:53.967Z,6.70
2023-04-29T16:54:57.093Z,6.57
2023-04-29T16:58:58.393Z,7.20
2023-04-29T17:03:00.258Z,9.20
2023-04-29T17:07:02.349Z,8.50
2023-04-29T17:11:04.220Z,6.97
2023-04-29T17:15:07.021Z,12.30
2023-04-29T17:19:08.481Z,8.30
2023-04-29T17:23:09.652Z,8.47
2023-04-29T17:27:12.970Z,10.60
2023-04-29T17:31:14.668Z,9.83
2023-04-29T17:35:15.825Z,12.50
2023-04-29T17:39:17.305Z,12.13
2023-04-29T17:43:18.444Z,17.23
2023-04-29T17:47:20.923Z,13.23
2023-04-29T17:51:22.036Z,10.70
2023-04-29T17:55:23.450Z,14.53
2023-04-29T17:59:24.664Z,11.53
2023-04-29T18:03:26.543Z,12.10
2023-04-29T18:07:27.879Z,14.70
2023-04-29T18:11:29.037Z,14.37
2023-04-29T18:15:30.168Z,12.37
2023-04-29T18:19:31.391Z,11.83
2023-04-29T18:23:32.527Z,12.03
2023-04-29T18:27:33.627Z,12.90
2023-04-29T18:31:34.939Z,12.73
2023-04-29T18:35:37.145Z,14.60
2023-04-29T18:39:38.318Z,13.63
2023-04-29T18:43:39.353Z,12.23
2023-04-29T18:47:40.579Z,10.67
2023-04-29T18:51:45.302Z,13.80
2023-04-29T18:55:46.587Z,12.00
2023-04-29T18:59:47.758Z,11.73
2023-04-29T19:03:48.954Z,12.83
2023-04-29T19:07:50.242Z,12.27
2023-04-29T19:11:51.407Z,15.23
2023-04-29T19:15:54.327Z,12.97
2023-04-29T19:19:55.928Z,12.07
2023-04-29T19:23:59.145Z,15.27
2023-04-29T19:28:00.326Z,15.27
2023-04-29T19:32:01.497Z,13.10
2023-04-29T19:36:03.443Z,15.20
2023-04-29T19:40:06.049Z,13.50
2023-04-29T19:44:07.149Z,14.53
2023-04-29T19:48:08.352Z,14.20
2023-04-29T19:52:09.464Z,15.80
2023-04-29T19:56:10.712Z,14.43
2023-04-29T20:00:13.868Z,16.70
2023-04-29T20:04:15.068Z,14.70
2023-04-29T20:08:16.251Z,15.10
2023-04-29T20:12:17.409Z,15.00
2023-04-29T20:16:18.603Z,13.67
2023-04-29T20:20:19.762Z,14.00
2023-04-29T20:24:21.004Z,13.43
2023-04-29T20:28:22.177Z,14.30
2023-04-29T20:32:23.566Z,15.23
2023-04-29T20:36:26.826Z,17.40
2023-04-29T20:40:27.999Z,16.90
2023-04-29T20:44:29.286Z,16.05
2023-04-29T20:48:30.446Z,14.70
2023-04-29T20:52:33.541Z,15.83
2023-04-29T20:56:34.691Z,13.50
2023-04-29T21:00:36.550Z,17.73
2023-04-29T21:04:37.837Z,15.63
2023-04-29T21:08:38.950Z,14.40
2023-04-29T21:12:40.247Z,17.40
2023-04-29T21:16:41.928Z,15.67
2023-04-29T21:20:43.119Z,15.87
2023-04-29T21:24:44.279Z,15.37
2023-04-29T21:28:45.638Z,15.27
2023-04-29T21:32:46.823Z,16.33
2023-04-29T21:36:48.218Z,17.47
2023-04-29T21:40:51.041Z,14.97
2023-04-29T21:44:57.826Z,15.20
2023-04-29T21:48:59.902Z,15.60
2023-04-29T21:53:01.049Z,16.07
2023-04-29T21:57:02.241Z,15.10
2023-04-29T22:01:08.313Z,14.97
2023-04-29T22:05:09.569Z,16.10
2023-04-29T22:09:10.773Z,15.73
2023-04-29T22:13:12.116Z,13.70
2023-04-29T22:17:13.721Z,15.23
2023-04-29T22:21:14.979Z,15.47
2023-04-29T22:25:17.361Z,17.20
2023-04-29T22:29:19.420Z,15.73
2023-04-29T22:33:20.586Z,16.90
2023-04-29T22:37:21.764Z,14.93
2023-04-29T22:41:22.930Z,14.63
2023-04-29T22:45:24.214Z,14.50
2023-04-29T22:49:25.869Z,17.70
2023-04-29T22:53:27.079Z,17.43
2023-04-29T22:57:28.255Z,19.57
2023-04-29T23:01:29.473Z,16.20
2023-04-29T23:05:31.627Z,20.20
2023-04-29T23:09:32.809Z,17.27
2023-04-29T23:13:34.007Z,18.00
2023-04-29T23:17:36.796Z,18.77
2023-04-29T23:21:37.919Z,18.33
2023-04-29T23:25:39.100Z,18.53
2023-04-29T23:29:40.795Z,17.43
2023-04-29T23:33:41.990Z,20.10
2023-04-29T23:37:43.157Z,18.93
2023-04-29T23:41:44.516Z,17.47
2023-04-29T23:45:46.546Z,17.87
2023-04-29T23:49:47.662Z,16.20
2023-04-29T23:53:48.839Z,18.67
2023-04-29T23:57:49.999Z,18.47
